LGKF/EFL METAR and TAF weather

Enter ICAO airport designator
Station Type Date Time Source
LGKF METAR 2023/02/03 17:50 UTC NOAA

LGKF 031750Z 01003KT CAVOK 09/04 Q1023


Station Type Date Time Source
LGKF Decoded METAR 2023/02/03 17:50 UTC NOAA

Kefalhnia Airport , Greece (LGKF) 38-07N 020-30E 22M
Feb 03, 2023 - 12:50 PM EST / 2023.02.03 1750 UTC
Wind: from the N (010 degrees) at 3 MPH (3 KT):0
Visibility: greater than 7 mile(s):0
Temperature: 48 F (9 C)
Dew Point: 39 F (4 C)
Relative Humidity: 70%
Pressure (altimeter): 30.21 in. Hg (1023 hPa)
ob: LGKF 031750Z 01003KT CAVOK 09/04 Q1023
cycle: 18

Station Type Date Time Source
LGKF TAF 2011/03/20 15:06 UTC NOAA

TAF LGKF 201400Z 2015/2103 05012KT 9999 FEW020 SCT080 PROB30
TEMPO 2015/2003 6000 RA SCT020 BKN060 PROB30
TEMPO 2015/2021 4000 TSRA SCT015 FEW018CB BKN025

Example: see airport list